sensor_id;sensor_type;location;lat;lon;timestamp;P1;durP1;ratioP1;P2;durP2;ratioP2
52188;SDS011;38162;45.926;13.608;2023-03-16T00:01:18;1.97;;;1.10;;
52188;SDS011;38162;45.926;13.608;2023-03-16T00:03:44;4.97;;;2.37;;
52188;SDS011;38162;45.926;13.608;2023-03-16T00:06:09;3.30;;;2.10;;
52188;SDS011;38162;45.926;13.608;2023-03-16T00:08:35;4.97;;;2.00;;
52188;SDS011;38162;45.926;13.608;2023-03-16T00:11:02;3.00;;;1.67;;
52188;SDS011;38162;45.926;13.608;2023-03-16T00:13:28;3.20;;;0.97;;
52188;SDS011;38162;45.926;13.608;2023-03-16T00:15:58;2.33;;;1.10;;
52188;SDS011;38162;45.926;13.608;2023-03-16T00:18:27;2.55;;;0.98;;
52188;SDS011;38162;45.926;13.608;2023-03-16T00:20:54;3.17;;;0.70;;
52188;SDS011;38162;45.926;13.608;2023-03-16T00:23:22;2.50;;;0.60;;
52188;SDS011;38162;45.926;13.608;2023-03-16T00:25:57;1.23;;;0.40;;
52188;SDS011;38162;45.926;13.608;2023-03-16T00:28:24;2.73;;;0.57;;
52188;SDS011;38162;45.926;13.608;2023-03-16T00:30:52;1.90;;;0.50;;
52188;SDS011;38162;45.926;13.608;2023-03-16T00:33:23;1.27;;;0.30;;
52188;SDS011;38162;45.926;13.608;2023-03-16T00:35:49;0.60;;;0.40;;
52188;SDS011;38162;45.926;13.608;2023-03-16T00:38:16;0.87;;;0.37;;
52188;SDS011;38162;45.926;13.608;2023-03-16T00:40:43;0.80;;;0.30;;
52188;SDS011;38162;45.926;13.608;2023-03-16T00:43:10;1.27;;;0.30;;
52188;SDS011;38162;45.926;13.608;2023-03-16T00:45:35;0.93;;;0.40;;
52188;SDS011;38162;45.926;13.608;2023-03-16T00:48:01;0.37;;;0.30;;
52188;SDS011;38162;45.926;13.608;2023-03-16T00:50:27;0.47;;;0.23;;
52188;SDS011;38162;45.926;13.608;2023-03-16T00:52:53;0.63;;;0.40;;
52188;SDS011;38162;45.926;13.608;2023-03-16T01:05:31;1.13;;;0.35;;
52188;SDS011;38162;45.926;13.608;2023-03-16T01:21:52;2.20;;;1.17;;
52188;SDS011;38162;45.926;13.608;2023-03-16T01:24:21;1.17;;;0.57;;
52188;SDS011;38162;45.926;13.608;2023-03-16T01:26:48;1.83;;;0.93;;
52188;SDS011;38162;45.926;13.608;2023-03-16T01:29:14;3.60;;;0.67;;
52188;SDS011;38162;45.926;13.608;2023-03-16T01:31:40;1.00;;;0.50;;
52188;SDS011;38162;45.926;13.608;2023-03-16T01:34:06;1.63;;;0.70;;
52188;SDS011;38162;45.926;13.608;2023-03-16T01:36:31;1.23;;;0.60;;
52188;SDS011;38162;45.926;13.608;2023-03-16T01:38:58;2.57;;;0.70;;
52188;SDS011;38162;45.926;13.608;2023-03-16T01:41:24;2.00;;;0.73;;
52188;SDS011;38162;45.926;13.608;2023-03-16T01:43:51;1.50;;;0.70;;
52188;SDS011;38162;45.926;13.608;2023-03-16T01:46:25;1.93;;;0.73;;
52188;SDS011;38162;45.926;13.608;2023-03-16T01:53:55;2.23;;;0.83;;
52188;SDS011;38162;45.926;13.608;2023-03-16T01:56:33;1.53;;;0.70;;
52188;SDS011;38162;45.926;13.608;2023-03-16T01:59:15;1.40;;;0.70;;
52188;SDS011;38162;45.926;13.608;2023-03-16T02:01:42;1.40;;;0.67;;
52188;SDS011;38162;45.926;13.608;2023-03-16T02:04:24;2.37;;;0.83;;
52188;SDS011;38162;45.926;13.608;2023-03-16T02:06:52;1.70;;;0.70;;
52188;SDS011;38162;45.926;13.608;2023-03-16T02:09:20;1.70;;;0.70;;
52188;SDS011;38162;45.926;13.608;2023-03-16T02:11:48;1.80;;;0.80;;
52188;SDS011;38162;45.926;13.608;2023-03-16T02:14:15;1.87;;;0.60;;
52188;SDS011;38162;45.926;13.608;2023-03-16T02:16:41;1.90;;;0.70;;
52188;SDS011;38162;45.926;13.608;2023-03-16T02:19:08;1.30;;;0.60;;
52188;SDS011;38162;45.926;13.608;2023-03-16T02:21:44;0.97;;;0.47;;
52188;SDS011;38162;45.926;13.608;2023-03-16T02:24:20;2.20;;;0.70;;
52188;SDS011;38162;45.926;13.608;2023-03-16T02:26:48;1.43;;;0.77;;
52188;SDS011;38162;45.926;13.608;2023-03-16T02:32:28;1.33;;;0.57;;
52188;SDS011;38162;45.926;13.608;2023-03-16T02:34:56;2.80;;;0.60;;
52188;SDS011;38162;45.926;13.608;2023-03-16T02:37:25;1.10;;;0.50;;
52188;SDS011;38162;45.926;13.608;2023-03-16T02:39:51;1.43;;;0.70;;
52188;SDS011;38162;45.926;13.608;2023-03-16T03:09:46;1.53;;;0.60;;
52188;SDS011;38162;45.926;13.608;2023-03-16T03:12:12;2.37;;;0.70;;
52188;SDS011;38162;45.926;13.608;2023-03-16T03:14:38;3.33;;;0.60;;
52188;SDS011;38162;45.926;13.608;2023-03-16T03:17:08;2.63;;;0.80;;
52188;SDS011;38162;45.926;13.608;2023-03-16T03:19:34;1.37;;;0.50;;
52188;SDS011;38162;45.926;13.608;2023-03-16T03:22:01;2.17;;;0.70;;
52188;SDS011;38162;45.926;13.608;2023-03-16T03:24:30;1.60;;;0.60;;
52188;SDS011;38162;45.926;13.608;2023-03-16T03:26:57;8.13;;;0.70;;
52188;SDS011;38162;45.926;13.608;2023-03-16T03:29:30;1.98;;;0.80;;
52188;SDS011;38162;45.926;13.608;2023-03-16T03:32:02;1.50;;;0.80;;
52188;SDS011;38162;45.926;13.608;2023-03-16T03:34:28;1.43;;;0.60;;
52188;SDS011;38162;45.926;13.608;2023-03-16T03:36:55;1.30;;;0.80;;
52188;SDS011;38162;45.926;13.608;2023-03-16T03:39:22;4.93;;;0.80;;
52188;SDS011;38162;45.926;13.608;2023-03-16T03:41:47;1.27;;;0.43;;
52188;SDS011;38162;45.926;13.608;2023-03-16T03:44:13;2.10;;;1.00;;
52188;SDS011;38162;45.926;13.608;2023-03-16T03:46:39;3.10;;;1.10;;
52188;SDS011;38162;45.926;13.608;2023-03-16T03:49:05;1.90;;;0.73;;
52188;SDS011;38162;45.926;13.608;2023-03-16T03:51:31;3.00;;;0.80;;
52188;SDS011;38162;45.926;13.608;2023-03-16T03:53:59;1.43;;;0.63;;
52188;SDS011;38162;45.926;13.608;2023-03-16T03:56:24;2.37;;;0.80;;
52188;SDS011;38162;45.926;13.608;2023-03-16T03:58:50;3.33;;;0.90;;
52188;SDS011;38162;45.926;13.608;2023-03-16T04:01:16;2.23;;;0.70;;
52188;SDS011;38162;45.926;13.608;2023-03-16T04:03:42;1.37;;;0.70;;
52188;SDS011;38162;45.926;13.608;2023-03-16T04:06:08;1.83;;;0.77;;
52188;SDS011;38162;45.926;13.608;2023-03-16T04:08:35;4.10;;;1.00;;
52188;SDS011;38162;45.926;13.608;2023-03-16T04:11:01;3.83;;;1.20;;
52188;SDS011;38162;45.926;13.608;2023-03-16T04:13:27;2.13;;;0.93;;
52188;SDS011;38162;45.926;13.608;2023-03-16T04:15:56;2.30;;;0.80;;
52188;SDS011;38162;45.926;13.608;2023-03-16T04:18:22;2.70;;;0.90;;
52188;SDS011;38162;45.926;13.608;2023-03-16T04:20:49;3.50;;;1.57;;
52188;SDS011;38162;45.926;13.608;2023-03-16T04:23:17;2.50;;;0.90;;
52188;SDS011;38162;45.926;13.608;2023-03-16T04:25:44;1.93;;;0.90;;
52188;SDS011;38162;45.926;13.608;2023-03-16T04:28:10;1.90;;;0.70;;
52188;SDS011;38162;45.926;13.608;2023-03-16T04:40:41;12.73;;;1.23;;
52188;SDS011;38162;45.926;13.608;2023-03-16T04:50:08;3.10;;;1.00;;
52188;SDS011;38162;45.926;13.608;2023-03-16T04:55:43;10.97;;;6.73;;
52188;SDS011;38162;45.926;13.608;2023-03-16T05:02:23;2.10;;;0.80;;
52188;SDS011;38162;45.926;13.608;2023-03-16T05:04:49;3.77;;;0.90;;
52188;SDS011;38162;45.926;13.608;2023-03-16T05:07:15;2.93;;;1.10;;
52188;SDS011;38162;45.926;13.608;2023-03-16T05:09:41;10.60;;;1.70;;
52188;SDS011;38162;45.926;13.608;2023-03-16T05:12:07;12.80;;;1.60;;
52188;SDS011;38162;45.926;13.608;2023-03-16T05:14:34;7.90;;;1.73;;
52188;SDS011;38162;45.926;13.608;2023-03-16T05:17:00;8.13;;;2.40;;
52188;SDS011;38162;45.926;13.608;2023-03-16T05:19:30;8.00;;;1.70;;
52188;SDS011;38162;45.926;13.608;2023-03-16T05:21:56;7.80;;;1.40;;
52188;SDS011;38162;45.926;13.608;2023-03-16T05:24:22;7.37;;;1.87;;
52188;SDS011;38162;45.926;13.608;2023-03-16T05:26:48;3.27;;;1.07;;
52188;SDS011;38162;45.926;13.608;2023-03-16T05:29:14;9.10;;;1.50;;
52188;SDS011;38162;45.926;13.608;2023-03-16T05:31:39;4.87;;;1.07;;
52188;SDS011;38162;45.926;13.608;2023-03-16T05:34:05;1.97;;;0.70;;
52188;SDS011;38162;45.926;13.608;2023-03-16T05:36:31;2.73;;;0.77;;
52188;SDS011;38162;45.926;13.608;2023-03-16T05:38:56;3.23;;;1.07;;
52188;SDS011;38162;45.926;13.608;2023-03-16T05:41:23;2.90;;;0.90;;
52188;SDS011;38162;45.926;13.608;2023-03-16T05:43:49;5.00;;;1.27;;
52188;SDS011;38162;45.926;13.608;2023-03-16T05:46:14;5.27;;;1.17;;
52188;SDS011;38162;45.926;13.608;2023-03-16T05:48:40;6.77;;;1.30;;
52188;SDS011;38162;45.926;13.608;2023-03-16T05:51:06;5.53;;;1.70;;
52188;SDS011;38162;45.926;13.608;2023-03-16T05:53:32;10.20;;;1.80;;
52188;SDS011;38162;45.926;13.608;2023-03-16T05:55:57;17.43;;;2.20;;
52188;SDS011;38162;45.926;13.608;2023-03-16T05:58:23;11.83;;;1.70;;
52188;SDS011;38162;45.926;13.608;2023-03-16T06:00:49;10.03;;;1.87;;
52188;SDS011;38162;45.926;13.608;2023-03-16T06:03:15;5.53;;;1.40;;
52188;SDS011;38162;45.926;13.608;2023-03-16T06:05:41;8.40;;;1.40;;
52188;SDS011;38162;45.926;13.608;2023-03-16T06:08:07;7.53;;;1.70;;
52188;SDS011;38162;45.926;13.608;2023-03-16T06:10:34;6.93;;;1.90;;
52188;SDS011;38162;45.926;13.608;2023-03-16T06:13:00;3.80;;;1.90;;
52188;SDS011;38162;45.926;13.608;2023-03-16T06:15:26;13.80;;;2.80;;
52188;SDS011;38162;45.926;13.608;2023-03-16T06:17:54;6.23;;;2.97;;
52188;SDS011;38162;45.926;13.608;2023-03-16T06:27:23;10.13;;;2.90;;
52188;SDS011;38162;45.926;13.608;2023-03-16T06:37:17;12.20;;;2.97;;
52188;SDS011;38162;45.926;13.608;2023-03-16T06:47:11;8.63;;;2.53;;
52188;SDS011;38162;45.926;13.608;2023-03-16T06:49:37;7.43;;;2.80;;
52188;SDS011;38162;45.926;13.608;2023-03-16T06:52:03;4.90;;;2.43;;
52188;SDS011;38162;45.926;13.608;2023-03-16T06:54:29;10.17;;;2.37;;
52188;SDS011;38162;45.926;13.608;2023-03-16T06:56:59;10.27;;;3.60;;
52188;SDS011;38162;45.926;13.608;2023-03-16T06:59:25;10.60;;;2.40;;
52188;SDS011;38162;45.926;13.608;2023-03-16T07:01:51;9.80;;;2.20;;
52188;SDS011;38162;45.926;13.608;2023-03-16T07:04:17;4.23;;;1.90;;
52188;SDS011;38162;45.926;13.608;2023-03-16T07:06:43;7.27;;;2.43;;
52188;SDS011;38162;45.926;13.608;2023-03-16T07:09:08;5.83;;;2.03;;
52188;SDS011;38162;45.926;13.608;2023-03-16T07:11:36;6.33;;;2.93;;
52188;SDS011;38162;45.926;13.608;2023-03-16T07:14:02;3.30;;;1.33;;
52188;SDS011;38162;45.926;13.608;2023-03-16T07:16:28;4.47;;;1.90;;
52188;SDS011;38162;45.926;13.608;2023-03-16T07:18:56;4.50;;;1.90;;
52188;SDS011;38162;45.926;13.608;2023-03-16T07:21:21;5.93;;;1.73;;
52188;SDS011;38162;45.926;13.608;2023-03-16T07:23:47;6.03;;;1.50;;
52188;SDS011;38162;45.926;13.608;2023-03-16T07:26:13;5.17;;;2.13;;
52188;SDS011;38162;45.926;13.608;2023-03-16T07:28:39;2.77;;;1.43;;
52188;SDS011;38162;45.926;13.608;2023-03-16T07:31:05;4.27;;;1.40;;
52188;SDS011;38162;45.926;13.608;2023-03-16T07:33:32;6.03;;;1.50;;
52188;SDS011;38162;45.926;13.608;2023-03-16T07:35:58;11.27;;;1.50;;
52188;SDS011;38162;45.926;13.608;2023-03-16T07:38:28;5.37;;;1.50;;
52188;SDS011;38162;45.926;13.608;2023-03-16T07:40:54;4.50;;;1.90;;
52188;SDS011;38162;45.926;13.608;2023-03-16T07:43:19;5.47;;;1.97;;
52188;SDS011;38162;45.926;13.608;2023-03-16T07:45:49;4.13;;;1.90;;
52188;SDS011;38162;45.926;13.608;2023-03-16T07:48:16;4.63;;;1.97;;
52188;SDS011;38162;45.926;13.608;2023-03-16T07:50:42;5.00;;;2.00;;
52188;SDS011;38162;45.926;13.608;2023-03-16T07:53:09;7.27;;;2.27;;
52188;SDS011;38162;45.926;13.608;2023-03-16T07:55:35;6.00;;;2.10;;
52188;SDS011;38162;45.926;13.608;2023-03-16T07:58:02;6.00;;;2.33;;
52188;SDS011;38162;45.926;13.608;2023-03-16T08:00:30;8.17;;;1.80;;
52188;SDS011;38162;45.926;13.608;2023-03-16T08:02:56;7.93;;;2.13;;
52188;SDS011;38162;45.926;13.608;2023-03-16T08:05:23;5.03;;;1.60;;
52188;SDS011;38162;45.926;13.608;2023-03-16T08:07:53;4.03;;;1.50;;
52188;SDS011;38162;45.926;13.608;2023-03-16T08:11:25;3.60;;;1.20;;
52188;SDS011;38162;45.926;13.608;2023-03-16T08:32:24;2.77;;;1.10;;
52188;SDS011;38162;45.926;13.608;2023-03-16T08:35:07;2.63;;;1.10;;
52188;SDS011;38162;45.926;13.608;2023-03-16T08:37:36;3.40;;;0.97;;
52188;SDS011;38162;45.926;13.608;2023-03-16T08:40:03;2.57;;;1.10;;
52188;SDS011;38162;45.926;13.608;2023-03-16T08:42:34;4.93;;;1.13;;
52188;SDS011;38162;45.926;13.608;2023-03-16T08:45:03;3.10;;;1.00;;
52188;SDS011;38162;45.926;13.608;2023-03-16T08:47:34;2.30;;;0.70;;
52188;SDS011;38162;45.926;13.608;2023-03-16T08:50:01;2.57;;;0.90;;
52188;SDS011;38162;45.926;13.608;2023-03-16T08:52:29;4.47;;;1.03;;
52188;SDS011;38162;45.926;13.608;2023-03-16T08:54:56;1.93;;;0.70;;
52188;SDS011;38162;45.926;13.608;2023-03-16T08:57:22;2.10;;;0.70;;
52188;SDS011;38162;45.926;13.608;2023-03-16T08:59:48;2.07;;;1.07;;
52188;SDS011;38162;45.926;13.608;2023-03-16T09:02:15;3.13;;;0.90;;
52188;SDS011;38162;45.926;13.608;2023-03-16T09:04:40;2.87;;;1.03;;
52188;SDS011;38162;45.926;13.608;2023-03-16T09:07:06;2.30;;;0.90;;
52188;SDS011;38162;45.926;13.608;2023-03-16T09:09:33;3.83;;;0.90;;
52188;SDS011;38162;45.926;13.608;2023-03-16T09:11:59;5.30;;;1.47;;
52188;SDS011;38162;45.926;13.608;2023-03-16T09:14:26;1.90;;;0.70;;
52188;SDS011;38162;45.926;13.608;2023-03-16T09:16:51;2.07;;;0.90;;
52188;SDS011;38162;45.926;13.608;2023-03-16T09:19:17;2.93;;;0.73;;
52188;SDS011;38162;45.926;13.608;2023-03-16T09:21:43;3.17;;;0.80;;
52188;SDS011;38162;45.926;13.608;2023-03-16T09:24:09;1.40;;;0.70;;
52188;SDS011;38162;45.926;13.608;2023-03-16T09:26:35;3.30;;;1.03;;
52188;SDS011;38162;45.926;13.608;2023-03-16T09:29:02;1.57;;;0.60;;
52188;SDS011;38162;45.926;13.608;2023-03-16T09:31:31;1.40;;;0.70;;
52188;SDS011;38162;45.926;13.608;2023-03-16T09:33:57;3.47;;;0.77;;
52188;SDS011;38162;45.926;13.608;2023-03-16T09:36:23;1.83;;;0.60;;
52188;SDS011;38162;45.926;13.608;2023-03-16T09:38:51;1.73;;;0.60;;
52188;SDS011;38162;45.926;13.608;2023-03-16T09:41:30;3.90;;;0.83;;
52188;SDS011;38162;45.926;13.608;2023-03-16T09:46:59;2.83;;;0.75;;
52188;SDS011;38162;45.926;13.608;2023-03-16T09:49:30;1.77;;;0.70;;
52188;SDS011;38162;45.926;13.608;2023-03-16T09:55:48;2.00;;;0.80;;
52188;SDS011;38162;45.926;13.608;2023-03-16T10:18:52;2.30;;;0.73;;
52188;SDS011;38162;45.926;13.608;2023-03-16T10:21:25;2.22;;;0.60;;
52188;SDS011;38162;45.926;13.608;2023-03-16T10:23:51;3.10;;;0.75;;
52188;SDS011;38162;45.926;13.608;2023-03-16T10:26:21;1.35;;;0.75;;
52188;SDS011;38162;45.926;13.608;2023-03-16T10:28:55;1.88;;;0.60;;
52188;SDS011;38162;45.926;13.608;2023-03-16T10:31:21;1.73;;;0.80;;
52188;SDS011;38162;45.926;13.608;2023-03-16T10:33:49;1.60;;;0.70;;
52188;SDS011;38162;45.926;13.608;2023-03-16T10:36:32;2.63;;;0.60;;
52188;SDS011;38162;45.926;13.608;2023-03-16T10:39:02;2.05;;;0.70;;
52188;SDS011;38162;45.926;13.608;2023-03-16T10:41:35;1.65;;;0.75;;
52188;SDS011;38162;45.926;13.608;2023-03-16T10:44:03;1.55;;;0.82;;
52188;SDS011;38162;45.926;13.608;2023-03-16T10:49:23;3.25;;;0.90;;
52188;SDS011;38162;45.926;13.608;2023-03-16T10:51:56;1.83;;;0.90;;
52188;SDS011;38162;45.926;13.608;2023-03-16T10:54:28;1.65;;;0.82;;
52188;SDS011;38162;45.926;13.608;2023-03-16T10:56:56;1.23;;;0.65;;
52188;SDS011;38162;45.926;13.608;2023-03-16T10:59:33;1.50;;;1.00;;
52188;SDS011;38162;45.926;13.608;2023-03-16T11:02:01;1.88;;;0.90;;
52188;SDS011;38162;45.926;13.608;2023-03-16T11:04:50;2.28;;;1.10;;
52188;SDS011;38162;45.926;13.608;2023-03-16T11:07:17;2.58;;;0.80;;
52188;SDS011;38162;45.926;13.608;2023-03-16T11:09:48;2.38;;;1.08;;
52188;SDS011;38162;45.926;13.608;2023-03-16T11:12:21;1.40;;;0.85;;
52188;SDS011;38162;45.926;13.608;2023-03-16T11:15:00;2.55;;;0.90;;
52188;SDS011;38162;45.926;13.608;2023-03-16T11:17:30;2.65;;;0.88;;
52188;SDS011;38162;45.926;13.608;2023-03-16T11:20:02;1.02;;;0.60;;
52188;SDS011;38162;45.926;13.608;2023-03-16T11:22:36;2.00;;;0.85;;
52188;SDS011;38162;45.926;13.608;2023-03-16T11:32:55;2.25;;;0.82;;
52188;SDS011;38162;45.926;13.608;2023-03-16T11:40:35;1.80;;;0.80;;
52188;SDS011;38162;45.926;13.608;2023-03-16T12:07:47;3.65;;;0.80;;
52188;SDS011;38162;45.926;13.608;2023-03-16T12:10:30;2.55;;;0.90;;
52188;SDS011;38162;45.926;13.608;2023-03-16T12:18:27;6.35;;;1.00;;
52188;SDS011;38162;45.926;13.608;2023-03-16T12:23:53;2.67;;;0.90;;
52188;SDS011;38162;45.926;13.608;2023-03-16T12:26:27;2.15;;;1.00;;
52188;SDS011;38162;45.926;13.608;2023-03-16T12:28:56;3.20;;;1.00;;
52188;SDS011;38162;45.926;13.608;2023-03-16T12:31:32;1.63;;;0.93;;
52188;SDS011;38162;45.926;13.608;2023-03-16T12:34:12;2.33;;;0.88;;
52188;SDS011;38162;45.926;13.608;2023-03-16T12:44:38;3.75;;;1.10;;
52188;SDS011;38162;45.926;13.608;2023-03-16T12:47:49;3.10;;;0.82;;
52188;SDS011;38162;45.926;13.608;2023-03-16T12:50:28;5.75;;;0.98;;
52188;SDS011;38162;45.926;13.608;2023-03-16T12:52:54;1.88;;;1.00;;
52188;SDS011;38162;45.926;13.608;2023-03-16T12:58:03;2.67;;;1.10;;
52188;SDS011;38162;45.926;13.608;2023-03-16T13:00:35;1.90;;;0.90;;
52188;SDS011;38162;45.926;13.608;2023-03-16T13:03:02;2.80;;;1.00;;
52188;SDS011;38162;45.926;13.608;2023-03-16T13:05:31;2.30;;;1.05;;
52188;SDS011;38162;45.926;13.608;2023-03-16T13:10:38;2.97;;;1.10;;
52188;SDS011;38162;45.926;13.608;2023-03-16T13:13:13;4.60;;;0.90;;
52188;SDS011;38162;45.926;13.608;2023-03-16T13:15:41;3.08;;;1.10;;
52188;SDS011;38162;45.926;13.608;2023-03-16T13:43:47;3.65;;;1.08;;
52188;SDS011;38162;45.926;13.608;2023-03-16T13:50:09;2.08;;;0.90;;
52188;SDS011;38162;45.926;13.608;2023-03-16T13:52:39;2.67;;;1.23;;
52188;SDS011;38162;45.926;13.608;2023-03-16T13:55:15;2.13;;;1.10;;
52188;SDS011;38162;45.926;13.608;2023-03-16T13:57:43;4.22;;;1.48;;
52188;SDS011;38162;45.926;13.608;2023-03-16T14:00:20;2.97;;;1.50;;
52188;SDS011;38162;45.926;13.608;2023-03-16T14:02:52;1.95;;;1.13;;
52188;SDS011;38162;45.926;13.608;2023-03-16T14:05:30;3.78;;;1.13;;
52188;SDS011;38162;45.926;13.608;2023-03-16T14:07:58;2.90;;;1.35;;
52188;SDS011;38162;45.926;13.608;2023-03-16T14:10:31;1.98;;;0.93;;
52188;SDS011;38162;45.926;13.608;2023-03-16T14:15:48;7.30;;;1.70;;
52188;SDS011;38162;45.926;13.608;2023-03-16T14:18:18;2.65;;;1.13;;
52188;SDS011;38162;45.926;13.608;2023-03-16T14:20:49;2.50;;;0.80;;
52188;SDS011;38162;45.926;13.608;2023-03-16T14:23:21;2.58;;;1.10;;
52188;SDS011;38162;45.926;13.608;2023-03-16T14:25:48;2.65;;;1.10;;
52188;SDS011;38162;45.926;13.608;2023-03-16T14:28:16;3.88;;;1.55;;
52188;SDS011;38162;45.926;13.608;2023-03-16T14:30:54;4.22;;;1.30;;
52188;SDS011;38162;45.926;13.608;2023-03-16T14:33:31;2.67;;;1.20;;
52188;SDS011;38162;45.926;13.608;2023-03-16T14:35:59;2.95;;;1.40;;
52188;SDS011;38162;45.926;13.608;2023-03-16T14:38:34;4.28;;;1.13;;
52188;SDS011;38162;45.926;13.608;2023-03-16T14:41:23;1.98;;;1.25;;
52188;SDS011;38162;45.926;13.608;2023-03-16T14:43:53;2.83;;;1.48;;
52188;SDS011;38162;45.926;13.608;2023-03-16T14:46:28;3.33;;;1.20;;
52188;SDS011;38162;45.926;13.608;2023-03-16T14:49:08;2.08;;;1.30;;
52188;SDS011;38162;45.926;13.608;2023-03-16T14:51:44;2.97;;;1.45;;
52188;SDS011;38162;45.926;13.608;2023-03-16T14:54:12;3.38;;;1.52;;
52188;SDS011;38162;45.926;13.608;2023-03-16T14:56:42;3.00;;;1.38;;
52188;SDS011;38162;45.926;13.608;2023-03-16T14:59:18;7.22;;;1.38;;
52188;SDS011;38162;45.926;13.608;2023-03-16T15:01:46;3.00;;;1.50;;
52188;SDS011;38162;45.926;13.608;2023-03-16T15:04:14;1.50;;;1.10;;
52188;SDS011;38162;45.926;13.608;2023-03-16T15:06:46;2.70;;;1.27;;
52188;SDS011;38162;45.926;13.608;2023-03-16T15:20:06;4.25;;;1.30;;
52188;SDS011;38162;45.926;13.608;2023-03-16T15:23:18;4.00;;;1.52;;
52188;SDS011;38162;45.926;13.608;2023-03-16T15:25:45;3.17;;;1.42;;
52188;SDS011;38162;45.926;13.608;2023-03-16T15:31:18;4.30;;;1.63;;
52188;SDS011;38162;45.926;13.608;2023-03-16T15:33:47;1.90;;;1.08;;
52188;SDS011;38162;45.926;13.608;2023-03-16T15:36:15;3.58;;;1.20;;
52188;SDS011;38162;45.926;13.608;2023-03-16T15:38:45;4.47;;;1.30;;
52188;SDS011;38162;45.926;13.608;2023-03-16T15:41:13;3.72;;;1.58;;
52188;SDS011;38162;45.926;13.608;2023-03-16T15:43:39;2.90;;;1.40;;
52188;SDS011;38162;45.926;13.608;2023-03-16T15:46:05;4.22;;;2.13;;
52188;SDS011;38162;45.926;13.608;2023-03-16T15:48:31;3.80;;;1.55;;
52188;SDS011;38162;45.926;13.608;2023-03-16T15:51:07;3.25;;;1.30;;
52188;SDS011;38162;45.926;13.608;2023-03-16T15:54:02;2.50;;;1.40;;
52188;SDS011;38162;45.926;13.608;2023-03-16T15:56:31;2.92;;;1.42;;
52188;SDS011;38162;45.926;13.608;2023-03-16T15:59:00;3.20;;;1.63;;
52188;SDS011;38162;45.926;13.608;2023-03-16T16:01:30;3.10;;;1.50;;
52188;SDS011;38162;45.926;13.608;2023-03-16T16:04:05;3.20;;;1.38;;
52188;SDS011;38162;45.926;13.608;2023-03-16T16:06:36;3.45;;;1.30;;
52188;SDS011;38162;45.926;13.608;2023-03-16T16:09:02;7.32;;;1.30;;
52188;SDS011;38162;45.926;13.608;2023-03-16T16:11:27;4.15;;;1.50;;
52188;SDS011;38162;45.926;13.608;2023-03-16T16:13:54;3.65;;;1.65;;
52188;SDS011;38162;45.926;13.608;2023-03-16T16:16:21;3.20;;;1.30;;
52188;SDS011;38162;45.926;13.608;2023-03-16T16:18:49;6.45;;;1.20;;
52188;SDS011;38162;45.926;13.608;2023-03-16T16:21:33;2.92;;;1.30;;
52188;SDS011;38162;45.926;13.608;2023-03-16T16:23:59;3.75;;;1.40;;
52188;SDS011;38162;45.926;13.608;2023-03-16T16:28:54;1.95;;;1.10;;
52188;SDS011;38162;45.926;13.608;2023-03-16T16:31:25;2.50;;;1.10;;
52188;SDS011;38162;45.926;13.608;2023-03-16T16:33:54;2.55;;;1.23;;
52188;SDS011;38162;45.926;13.608;2023-03-16T16:36:20;2.75;;;1.15;;
52188;SDS011;38162;45.926;13.608;2023-03-16T16:38:47;1.58;;;1.05;;
52188;SDS011;38162;45.926;13.608;2023-03-16T16:41:18;2.95;;;1.23;;
52188;SDS011;38162;45.926;13.608;2023-03-16T16:46:23;1.83;;;1.13;;
52188;SDS011;38162;45.926;13.608;2023-03-16T16:48:58;2.25;;;1.20;;
52188;SDS011;38162;45.926;13.608;2023-03-16T16:51:28;4.47;;;1.48;;
52188;SDS011;38162;45.926;13.608;2023-03-16T17:00:50;3.03;;;1.17;;
52188;SDS011;38162;45.926;13.608;2023-03-16T17:04:05;21.05;;;13.27;;
52188;SDS011;38162;45.926;13.608;2023-03-16T17:10:23;3.25;;;1.60;;
52188;SDS011;38162;45.926;13.608;2023-03-16T17:20:25;3.10;;;1.48;;
52188;SDS011;38162;45.926;13.608;2023-03-16T17:22:51;4.65;;;2.00;;
52188;SDS011;38162;45.926;13.608;2023-03-16T17:25:18;4.32;;;2.30;;
52188;SDS011;38162;45.926;13.608;2023-03-16T17:27:45;3.00;;;1.75;;
52188;SDS011;38162;45.926;13.608;2023-03-16T17:30:22;3.75;;;2.30;;
52188;SDS011;38162;45.926;13.608;2023-03-16T17:32:52;3.47;;;2.20;;
52188;SDS011;38162;45.926;13.608;2023-03-16T17:35:21;4.18;;;2.22;;
52188;SDS011;38162;45.926;13.608;2023-03-16T17:37:47;6.30;;;2.53;;
52188;SDS011;38162;45.926;13.608;2023-03-16T17:40:14;6.10;;;2.30;;
52188;SDS011;38162;45.926;13.608;2023-03-16T17:42:42;3.85;;;2.10;;
52188;SDS011;38162;45.926;13.608;2023-03-16T17:45:19;4.78;;;1.98;;
52188;SDS011;38162;45.926;13.608;2023-03-16T17:47:48;3.63;;;2.17;;
52188;SDS011;38162;45.926;13.608;2023-03-16T17:50:22;3.30;;;2.00;;
52188;SDS011;38162;45.926;13.608;2023-03-16T17:52:55;6.20;;;1.98;;
52188;SDS011;38162;45.926;13.608;2023-03-16T17:55:21;4.68;;;2.00;;
52188;SDS011;38162;45.926;13.608;2023-03-16T17:57:49;4.25;;;2.65;;
52188;SDS011;38162;45.926;13.608;2023-03-16T18:02:52;7.30;;;2.50;;
52188;SDS011;38162;45.926;13.608;2023-03-16T18:05:27;7.75;;;3.15;;
52188;SDS011;38162;45.926;13.608;2023-03-16T18:07:57;5.40;;;3.97;;
52188;SDS011;38162;45.926;13.608;2023-03-16T18:10:28;6.07;;;4.93;;
52188;SDS011;38162;45.926;13.608;2023-03-16T18:13:00;8.43;;;4.72;;
52188;SDS011;38162;45.926;13.608;2023-03-16T18:15:32;9.25;;;4.45;;
52188;SDS011;38162;45.926;13.608;2023-03-16T18:18:00;5.97;;;3.67;;
52188;SDS011;38162;45.926;13.608;2023-03-16T18:20:29;9.10;;;3.58;;
52188;SDS011;38162;45.926;13.608;2023-03-16T18:22:59;5.07;;;3.47;;
52188;SDS011;38162;45.926;13.608;2023-03-16T18:25:33;7.70;;;4.15;;
52188;SDS011;38162;45.926;13.608;2023-03-16T18:28:03;6.97;;;4.40;;
52188;SDS011;38162;45.926;13.608;2023-03-16T18:30:30;8.57;;;4.00;;
52188;SDS011;38162;45.926;13.608;2023-03-16T18:32:57;7.57;;;4.18;;
52188;SDS011;38162;45.926;13.608;2023-03-16T18:35:24;7.68;;;4.13;;
52188;SDS011;38162;45.926;13.608;2023-03-16T18:57:52;17.13;;;6.55;;
52188;SDS011;38162;45.926;13.608;2023-03-16T19:04:51;19.77;;;7.28;;
52188;SDS011;38162;45.926;13.608;2023-03-16T19:10:01;14.48;;;8.48;;
52188;SDS011;38162;45.926;13.608;2023-03-16T19:12:32;18.92;;;9.63;;
52188;SDS011;38162;45.926;13.608;2023-03-16T19:14:58;14.90;;;9.85;;
52188;SDS011;38162;45.926;13.608;2023-03-16T19:17:24;16.02;;;9.02;;
52188;SDS011;38162;45.926;13.608;2023-03-16T19:19:50;12.82;;;8.60;;
52188;SDS011;38162;45.926;13.608;2023-03-16T19:22:16;21.02;;;9.70;;
52188;SDS011;38162;45.926;13.608;2023-03-16T19:24:49;16.92;;;9.93;;
52188;SDS011;38162;45.926;13.608;2023-03-16T19:29:50;22.15;;;10.15;;
52188;SDS011;38162;45.926;13.608;2023-03-16T19:32:18;13.80;;;9.75;;
52188;SDS011;38162;45.926;13.608;2023-03-16T19:34:45;13.18;;;8.73;;
52188;SDS011;38162;45.926;13.608;2023-03-16T19:37:11;16.45;;;9.55;;
52188;SDS011;38162;45.926;13.608;2023-03-16T19:39:43;17.20;;;9.75;;
52188;SDS011;38162;45.926;13.608;2023-03-16T19:42:30;17.88;;;10.18;;
52188;SDS011;38162;45.926;13.608;2023-03-16T19:44:57;18.88;;;10.30;;
52188;SDS011;38162;45.926;13.608;2023-03-16T19:47:27;14.48;;;9.50;;
52188;SDS011;38162;45.926;13.608;2023-03-16T19:49:57;22.85;;;12.93;;
52188;SDS011;38162;45.926;13.608;2023-03-16T19:52:23;18.98;;;10.63;;
52188;SDS011;38162;45.926;13.608;2023-03-16T19:54:50;14.68;;;11.27;;
52188;SDS011;38162;45.926;13.608;2023-03-16T19:57:16;21.13;;;13.32;;
52188;SDS011;38162;45.926;13.608;2023-03-16T19:59:45;25.23;;;12.63;;
52188;SDS011;38162;45.926;13.608;2023-03-16T20:02:35;18.27;;;12.77;;